OHIHQ EFHN-EFKG

Flight info

Callsign OHIHQ
Flight time N/A
Altitude 2000
Route VFR EFHN RIRIP EFKG
Aircraft DV20/L-V/N

Departure

Time 2026-05-04 17:10
Airport Hanko Airfield (EFHN)

Arrival

Time N/A
Airport Kumlinge Airfield (EFKG)
Time Latitude Longitude Altitude Speed Heading
2026-05-04 16:55 59.84316 23.08124 22 ft 0 kts 300°
2026-05-04 17:02 59.84326 23.08082 22 ft 5 kts 299°
2026-05-04 17:03 59.84346 23.08021 20 ft 2 kts 304°
2026-05-04 17:03 59.84353 23.08000 20 ft 0 kts 304°
2026-05-04 17:04 59.84361 23.07979 20 ft 2 kts 306°
2026-05-04 17:05 59.84383 23.07940 21 ft 8 kts 19°
2026-05-04 17:05 59.84593 23.08212 24 ft 26 kts 35°
2026-05-04 17:06 59.84858 23.08565 26 ft 20 kts 34°
2026-05-04 17:06 59.84974 23.08722 28 ft 10 kts 39°
2026-05-04 17:07 59.85202 23.09020 29 ft 8 kts 37°
2026-05-04 17:07 59.85211 23.09029 29 ft 4 kts 13°
2026-05-04 17:07 59.85285 23.09134 30 ft 13 kts 33°
2026-05-04 17:07 59.85342 23.09224 30 ft 5 kts 10°
2026-05-04 17:08 59.85332 23.09190 30 ft 6 kts 229°
2026-05-04 17:08 59.85324 23.09175 30 ft 0 kts 212°
2026-05-04 17:08 59.85309 23.09165 30 ft 0 kts 213°
2026-05-04 17:09 59.85256 23.09094 30 ft 31 kts 212°
2026-05-04 17:09 59.84938 23.08673 69 ft 69 kts 218°
2026-05-04 17:10 59.84071 23.07429 645 ft 61 kts 223°
2026-05-04 17:10 59.83434 23.05719 1106 ft 77 kts 288°
2026-05-04 17:11 59.83751 23.04795 1205 ft 84 kts 299°
2026-05-04 17:11 59.84135 23.03915 1348 ft 85 kts 305°
2026-05-04 17:11 59.84974 23.02243 1571 ft 89 kts 306°
2026-05-04 17:12 59.85427 23.01380 1652 ft 91 kts 310°
2026-05-04 17:12 59.86382 22.99995 1720 ft 78 kts 316°
2026-05-04 17:13 59.87506 22.98182 1926 ft 63 kts 300°
2026-05-04 17:14 59.88387 22.96185 2016 ft 65 kts 292°
2026-05-04 17:14 59.88653 22.95452 2031 ft 66 kts 293°
2026-05-04 17:14 59.89298 22.94022 2043 ft 68 kts 303°
2026-05-04 17:15 59.89636 22.93398 2091 ft 65 kts 299°
2026-05-04 17:15 59.90194 22.91971 2087 ft 68 kts 292°
2026-05-04 17:16 59.90779 22.90370 2040 ft 72 kts 295°
2026-05-04 17:16 59.91884 22.87414 2037 ft 101 kts 295°
2026-05-04 17:17 59.92277 22.86257 2049 ft 98 kts 295°
2026-05-04 17:17 59.93336 22.82803 1988 ft 94 kts 290°
2026-05-04 17:18 59.93642 22.81678 1988 ft 91 kts 290°
2026-05-04 17:18 59.94233 22.79492 1981 ft 92 kts 292°
2026-05-04 17:19 59.94893 22.77248 1952 ft 88 kts 292°
2026-05-04 17:19 59.95583 22.75157 1946 ft 90 kts 291°
2026-05-04 17:20 59.96154 22.72961 1925 ft 89 kts 288°
2026-05-04 17:20 59.96840 22.70731 1754 ft 97 kts 294°
2026-05-04 17:20 59.97185 22.69639 1751 ft 92 kts 293°
2026-05-04 17:21 59.97830 22.67700 1931 ft 81 kts 291°
2026-05-04 17:21 59.98341 22.65822 2083 ft 78 kts 288°
2026-05-04 17:22 59.98585 22.64811 2071 ft 83 kts 283°
2026-05-04 17:22 59.98780 22.63733 2056 ft 86 kts 282°
2026-05-04 17:23 59.99237 22.60261 2088 ft 87 kts 282°
2026-05-04 17:23 59.99428 22.59146 2181 ft 88 kts 280°
2026-05-04 17:23 59.99728 22.56617 2057 ft 100 kts 276°
2026-05-04 17:24 59.99831 22.55231 1949 ft 100 kts 272°
2026-05-04 17:24 60.00113 22.51142 1661 ft 103 kts 272°
2026-05-04 17:25 60.00229 22.49768 1638 ft 99 kts 277°
2026-05-04 17:25 60.00541 22.47162 1671 ft 92 kts 279°
2026-05-04 17:26 60.00961 22.44829 1879 ft 86 kts 288°
2026-05-04 17:26 60.01730 22.41603 2183 ft 84 kts 277°
2026-05-04 17:27 60.02195 22.39356 2221 ft 97 kts 285°
2026-05-04 17:27 60.02760 22.36780 1990 ft 101 kts 284°
2026-05-04 17:28 60.03243 22.34280 1937 ft 98 kts 284°
2026-05-04 17:29 60.04040 22.30553 1788 ft 96 kts 282°
2026-05-04 17:29 60.04772 22.26884 1764 ft 89 kts 284°
2026-05-04 17:30 60.05534 22.23587 1997 ft 86 kts 285°
2026-05-04 17:31 60.06003 22.21248 1967 ft 94 kts 283°
2026-05-04 17:31 60.06635 22.17688 2039 ft 92 kts 284°
2026-05-04 17:32 60.07075 22.15271 2035 ft 93 kts 284°
2026-05-04 17:33 60.07704 22.11592 2016 ft 92 kts 281°
2026-05-04 17:33 60.07902 22.10388 2006 ft 93 kts 282°
2026-05-04 17:34 60.08513 22.06756 2023 ft 90 kts 278°
2026-05-04 17:34 60.08675 22.05510 1980 ft 94 kts 277°
2026-05-04 17:35 60.09168 22.01837 1975 ft 91 kts 279°
2026-05-04 17:35 60.09470 21.99359 1973 ft 93 kts 276°
2026-05-04 17:35 60.09622 21.98105 1964 ft 93 kts 278°
2026-05-04 17:36 60.09766 21.96855 1994 ft 89 kts 275°
2026-05-04 17:36 60.09924 21.95628 1977 ft 91 kts 277°
2026-05-04 17:36 60.10045 21.94388 1989 ft 90 kts 276°
2026-05-04 17:36 60.10177 21.93170 1996 ft 90 kts 275°
2026-05-04 17:37 60.10312 21.91890 1955 ft 92 kts 275°
2026-05-04 17:37 60.10430 21.90646 1974 ft 89 kts 273°
2026-05-04 17:37 60.10617 21.89440 1924 ft 95 kts 282°
2026-05-04 17:37 60.10836 21.88178 1850 ft 95 kts 282°
2026-05-04 17:38 60.10879 21.87097 1917 ft 70 kts 258°
2026-05-04 17:38 60.10895 21.86138 1999 ft 72 kts 272°
2026-05-04 17:38 60.10925 21.85805 2002 ft 78 kts 275°